sensor_id;sensor_type;location;lat;lon;timestamp;temperature;humidity
45383;DHT22;42455;51.660;5.824;2023-05-10T00:02:57;15.8;98.5
45383;DHT22;42455;51.660;5.824;2023-05-10T00:08:03;15.8;98.5
45383;DHT22;42455;51.660;5.824;2023-05-10T00:13:10;15.8;98.5
45383;DHT22;42455;51.660;5.824;2023-05-10T00:18:16;15.8;98.5
45383;DHT22;42455;51.660;5.824;2023-05-10T00:23:22;15.8;98.5
45383;DHT22;42455;51.660;5.824;2023-05-10T00:28:28;15.8;98.5
45383;DHT22;42455;51.660;5.824;2023-05-10T00:33:34;15.8;98.5
45383;DHT22;42455;51.660;5.824;2023-05-10T00:38:41;15.8;98.5
45383;DHT22;42455;51.660;5.824;2023-05-10T00:43:47;15.8;98.5
45383;DHT22;42455;51.660;5.824;2023-05-10T00:48:53;15.8;98.5
45383;DHT22;42455;51.660;5.824;2023-05-10T00:54:00;15.7;98.5
45383;DHT22;42455;51.660;5.824;2023-05-10T00:59:05;15.7;98.5
45383;DHT22;42455;51.660;5.824;2023-05-10T01:04:12;15.7;98.5
45383;DHT22;42455;51.660;5.824;2023-05-10T01:09:18;15.7;98.5
45383;DHT22;42455;51.660;5.824;2023-05-10T01:14:24;15.7;98.5
45383;DHT22;42455;51.660;5.824;2023-05-10T01:19:30;15.7;98.5
45383;DHT22;42455;51.660;5.824;2023-05-10T01:26:30;15.7;98.5
45383;DHT22;42455;51.660;5.824;2023-05-10T01:32:57;15.7;98.5
45383;DHT22;42455;51.660;5.824;2023-05-10T01:36:48;15.7;98.5
45383;DHT22;42455;51.660;5.824;2023-05-10T01:41:01;15.6;98.5
45383;DHT22;42455;51.660;5.824;2023-05-10T01:45:27;15.6;98.5
45383;DHT22;42455;51.660;5.824;2023-05-10T01:50:10;15.6;98.5
45383;DHT22;42455;51.660;5.824;2023-05-10T01:55:14;15.6;98.5
45383;DHT22;42455;51.660;5.824;2023-05-10T02:00:20;15.6;98.5
45383;DHT22;42455;51.660;5.824;2023-05-10T02:05:28;15.6;98.5
45383;DHT22;42455;51.660;5.824;2023-05-10T02:10:32;15.6;98.5
45383;DHT22;42455;51.660;5.824;2023-05-10T02:15:41;15.6;98.5
45383;DHT22;42455;51.660;5.824;2023-05-10T02:20:45;15.6;98.5
45383;DHT22;42455;51.660;5.824;2023-05-10T02:25:52;15.6;98.5
45383;DHT22;42455;51.660;5.824;2023-05-10T02:30:57;15.6;98.5
45383;DHT22;42455;51.660;5.824;2023-05-10T02:36:03;15.6;98.5
45383;DHT22;42455;51.660;5.824;2023-05-10T02:41:09;15.5;98.5
45383;DHT22;42455;51.660;5.824;2023-05-10T02:46:15;15.5;98.5
45383;DHT22;42455;51.660;5.824;2023-05-10T02:51:23;15.5;98.5
45383;DHT22;42455;51.660;5.824;2023-05-10T02:56:36;15.5;98.5
45383;DHT22;42455;51.660;5.824;2023-05-10T03:01:33;15.5;98.5
45383;DHT22;42455;51.660;5.824;2023-05-10T03:06:40;15.5;98.5
45383;DHT22;42455;51.660;5.824;2023-05-10T03:12:06;15.5;98.5
45383;DHT22;42455;51.660;5.824;2023-05-10T03:16:56;15.5;98.5
45383;DHT22;42455;51.660;5.824;2023-05-10T03:22:03;15.5;98.5
45383;DHT22;42455;51.660;5.824;2023-05-10T03:27:05;15.5;98.5
45383;DHT22;42455;51.660;5.824;2023-05-10T03:32:11;15.6;98.5
45383;DHT22;42455;51.660;5.824;2023-05-10T03:37:17;15.6;98.5
45383;DHT22;42455;51.660;5.824;2023-05-10T03:42:23;15.6;98.5
45383;DHT22;42455;51.660;5.824;2023-05-10T03:47:29;15.6;98.5
45383;DHT22;42455;51.660;5.824;2023-05-10T03:52:36;15.6;98.5
45383;DHT22;42455;51.660;5.824;2023-05-10T03:57:42;15.6;98.5
45383;DHT22;42455;51.660;5.824;2023-05-10T04:02:48;15.6;98.5
45383;DHT22;42455;51.660;5.824;2023-05-10T04:07:54;15.7;98.5
45383;DHT22;42455;51.660;5.824;2023-05-10T04:13:00;15.7;98.5
45383;DHT22;42455;51.660;5.824;2023-05-10T04:18:07;15.7;98.5
45383;DHT22;42455;51.660;5.824;2023-05-10T04:23:13;15.7;98.5
45383;DHT22;42455;51.660;5.824;2023-05-10T04:28:19;15.7;98.5
45383;DHT22;42455;51.660;5.824;2023-05-10T04:33:25;15.7;98.5
45383;DHT22;42455;51.660;5.824;2023-05-10T04:38:31;15.7;98.5
45383;DHT22;42455;51.660;5.824;2023-05-10T04:43:38;15.7;98.5
45383;DHT22;42455;51.660;5.824;2023-05-10T04:48:44;15.7;98.5
45383;DHT22;42455;51.660;5.824;2023-05-10T04:53:50;15.7;98.5
45383;DHT22;42455;51.660;5.824;2023-05-10T04:58:56;15.7;98.5
45383;DHT22;42455;51.660;5.824;2023-05-10T05:04:03;15.7;98.5
45383;DHT22;42455;51.660;5.824;2023-05-10T05:09:09;15.7;98.5
45383;DHT22;42455;51.660;5.824;2023-05-10T05:14:15;15.7;98.5
45383;DHT22;42455;51.660;5.824;2023-05-10T05:19:21;15.7;98.5
45383;DHT22;42455;51.660;5.824;2023-05-10T05:24:27;15.7;98.5
45383;DHT22;42455;51.660;5.824;2023-05-10T05:29:34;15.7;98.5
45383;DHT22;42455;51.660;5.824;2023-05-10T05:34:40;15.7;98.5
45383;DHT22;42455;51.660;5.824;2023-05-10T05:39:46;15.7;98.5
45383;DHT22;42455;51.660;5.824;2023-05-10T05:44:52;15.6;98.5
45383;DHT22;42455;51.660;5.824;2023-05-10T05:49:58;15.6;98.5
45383;DHT22;42455;51.660;5.824;2023-05-10T05:55:05;15.5;98.5
45383;DHT22;42455;51.660;5.824;2023-05-10T06:00:11;15.5;98.5
45383;DHT22;42455;51.660;5.824;2023-05-10T06:05:17;15.5;98.5
45383;DHT22;42455;51.660;5.824;2023-05-10T06:10:23;15.5;98.5
45383;DHT22;42455;51.660;5.824;2023-05-10T06:15:30;15.5;98.5
45383;DHT22;42455;51.660;5.824;2023-05-10T06:20:36;15.5;98.5
45383;DHT22;42455;51.660;5.824;2023-05-10T06:25:42;15.5;98.5
45383;DHT22;42455;51.660;5.824;2023-05-10T06:30:48;15.5;98.5
45383;DHT22;42455;51.660;5.824;2023-05-10T06:35:54;15.6;98.5
45383;DHT22;42455;51.660;5.824;2023-05-10T06:41:01;15.7;98.5
45383;DHT22;42455;51.660;5.824;2023-05-10T06:46:06;15.8;98.5
45383;DHT22;42455;51.660;5.824;2023-05-10T06:51:12;15.9;98.5
45383;DHT22;42455;51.660;5.824;2023-05-10T07:01:24;16.0;98.5
45383;DHT22;42455;51.660;5.824;2023-05-10T07:06:31;16.1;98.5
45383;DHT22;42455;51.660;5.824;2023-05-10T07:11:37;16.1;98.5
45383;DHT22;42455;51.660;5.824;2023-05-10T07:16:43;16.1;98.5
45383;DHT22;42455;51.660;5.824;2023-05-10T07:21:50;16.1;98.5
45383;DHT22;42455;51.660;5.824;2023-05-10T07:26:55;16.1;98.5
45383;DHT22;42455;51.660;5.824;2023-05-10T07:32:02;16.1;98.5
45383;DHT22;42455;51.660;5.824;2023-05-10T07:37:08;16.1;98.5
45383;DHT22;42455;51.660;5.824;2023-05-10T07:42:14;16.1;98.5
45383;DHT22;42455;51.660;5.824;2023-05-10T07:47:20;16.1;98.5
45383;DHT22;42455;51.660;5.824;2023-05-10T07:52:27;16.1;98.5
45383;DHT22;42455;51.660;5.824;2023-05-10T07:57:33;16.2;98.5
45383;DHT22;42455;51.660;5.824;2023-05-10T08:02:39;16.2;98.5
45383;DHT22;42455;51.660;5.824;2023-05-10T08:07:45;16.3;98.5
45383;DHT22;42455;51.660;5.824;2023-05-10T08:12:51;16.3;98.5
45383;DHT22;42455;51.660;5.824;2023-05-10T08:17:57;16.4;98.5
45383;DHT22;42455;51.660;5.824;2023-05-10T08:23:04;16.5;98.5
45383;DHT22;42455;51.660;5.824;2023-05-10T08:28:10;16.5;98.5
45383;DHT22;42455;51.660;5.824;2023-05-10T08:33:17;16.5;98.5
45383;DHT22;42455;51.660;5.824;2023-05-10T08:38:22;16.5;98.5
45383;DHT22;42455;51.660;5.824;2023-05-10T08:43:29;16.5;98.5
45383;DHT22;42455;51.660;5.824;2023-05-10T08:48:35;16.6;98.5
45383;DHT22;42455;51.660;5.824;2023-05-10T08:53:41;16.7;98.5
45383;DHT22;42455;51.660;5.824;2023-05-10T08:58:47;16.8;98.5
45383;DHT22;42455;51.660;5.824;2023-05-10T09:03:53;16.9;98.5
45383;DHT22;42455;51.660;5.824;2023-05-10T09:09:01;17.0;98.5
45383;DHT22;42455;51.660;5.824;2023-05-10T09:14:06;17.0;98.5
45383;DHT22;42455;51.660;5.824;2023-05-10T09:19:12;17.1;98.5
45383;DHT22;42455;51.660;5.824;2023-05-10T09:24:18;17.2;98.5
45383;DHT22;42455;51.660;5.824;2023-05-10T09:29:24;17.3;98.5
45383;DHT22;42455;51.660;5.824;2023-05-10T09:34:32;17.4;98.0
45383;DHT22;42455;51.660;5.824;2023-05-10T09:39:37;17.4;97.5
45383;DHT22;42455;51.660;5.824;2023-05-10T09:44:45;17.5;97.5
45383;DHT22;42455;51.660;5.824;2023-05-10T09:49:49;17.5;97.0
45383;DHT22;42455;51.660;5.824;2023-05-10T09:54:56;17.5;97.0
45383;DHT22;42455;51.660;5.824;2023-05-10T10:00:02;17.5;97.0
45383;DHT22;42455;51.660;5.824;2023-05-10T10:05:08;17.5;97.0
45383;DHT22;42455;51.660;5.824;2023-05-10T10:10:14;17.5;97.0
45383;DHT22;42455;51.660;5.824;2023-05-10T10:15:21;17.5;97.0
45383;DHT22;42455;51.660;5.824;2023-05-10T10:20:27;17.6;97.0
45383;DHT22;42455;51.660;5.824;2023-05-10T10:25:33;17.6;96.5
45383;DHT22;42455;51.660;5.824;2023-05-10T10:30:48;17.6;96.5
45383;DHT22;42455;51.660;5.824;2023-05-10T10:35:45;17.7;96.5
45383;DHT22;42455;51.660;5.824;2023-05-10T10:41:02;17.8;96.5
45383;DHT22;42455;51.660;5.824;2023-05-10T10:46:17;17.9;96.5
45383;DHT22;42455;51.660;5.824;2023-05-10T10:51:04;17.9;96.0
45383;DHT22;42455;51.660;5.824;2023-05-10T10:56:13;17.9;96.0
45383;DHT22;42455;51.660;5.824;2023-05-10T11:01:18;17.9;95.5
45383;DHT22;42455;51.660;5.824;2023-05-10T11:06:28;17.9;95.5
45383;DHT22;42455;51.660;5.824;2023-05-10T11:11:29;17.9;95.0
45383;DHT22;42455;51.660;5.824;2023-05-10T11:16:41;17.9;95.0
45383;DHT22;42455;51.660;5.824;2023-05-10T11:21:48;17.9;95.0
45383;DHT22;42455;51.660;5.824;2023-05-10T11:26:50;17.8;95.0
45383;DHT22;42455;51.660;5.824;2023-05-10T11:31:56;17.8;95.0
45383;DHT22;42455;51.660;5.824;2023-05-10T11:37:00;17.7;95.0
45383;DHT22;42455;51.660;5.824;2023-05-10T11:47:33;17.5;96.0
45383;DHT22;42455;51.660;5.824;2023-05-10T11:52:39;17.5;97.0
45383;DHT22;42455;51.660;5.824;2023-05-10T11:57:46;17.7;96.5
45383;DHT22;42455;51.660;5.824;2023-05-10T12:02:52;17.8;96.5
45383;DHT22;42455;51.660;5.824;2023-05-10T12:08:10;18.0;96.0
45383;DHT22;42455;51.660;5.824;2023-05-10T12:13:04;18.0;96.0
45383;DHT22;42455;51.660;5.824;2023-05-10T12:18:11;18.1;96.0
45383;DHT22;42455;51.660;5.824;2023-05-10T12:23:16;18.2;96.0
45383;DHT22;42455;51.660;5.824;2023-05-10T12:28:23;18.4;96.0
45383;DHT22;42455;51.660;5.824;2023-05-10T12:33:36;18.5;96.0
45383;DHT22;42455;51.660;5.824;2023-05-10T12:38:36;18.6;95.5
45383;DHT22;42455;51.660;5.824;2023-05-10T12:43:42;18.6;95.0
45383;DHT22;42455;51.660;5.824;2023-05-10T12:48:48;18.5;95.0
45383;DHT22;42455;51.660;5.824;2023-05-10T12:53:54;18.5;95.0
45383;DHT22;42455;51.660;5.824;2023-05-10T12:59:00;18.6;95.5
45383;DHT22;42455;51.660;5.824;2023-05-10T13:04:06;18.6;95.5
45383;DHT22;42455;51.660;5.824;2023-05-10T13:09:12;18.6;95.5
45383;DHT22;42455;51.660;5.824;2023-05-10T13:14:19;18.7;95.5
45383;DHT22;42455;51.660;5.824;2023-05-10T13:19:25;18.7;95.5
45383;DHT22;42455;51.660;5.824;2023-05-10T13:24:31;18.8;95.0
45383;DHT22;42455;51.660;5.824;2023-05-10T13:29:37;18.8;94.5
45383;DHT22;42455;51.660;5.824;2023-05-10T13:34:43;18.8;94.5
45383;DHT22;42455;51.660;5.824;2023-05-10T13:39:50;18.7;94.5
45383;DHT22;42455;51.660;5.824;2023-05-10T13:44:56;18.7;94.0
45383;DHT22;42455;51.660;5.824;2023-05-10T13:50:02;18.7;94.5
45383;DHT22;42455;51.660;5.824;2023-05-10T13:55:08;18.7;94.5
45383;DHT22;42455;51.660;5.824;2023-05-10T14:00:15;18.8;95.0
45383;DHT22;42455;51.660;5.824;2023-05-10T14:05:21;18.9;95.0
45383;DHT22;42455;51.660;5.824;2023-05-10T14:10:27;18.9;94.5
45383;DHT22;42455;51.660;5.824;2023-05-10T14:15:33;18.9;95.0
45383;DHT22;42455;51.660;5.824;2023-05-10T14:20:39;18.9;94.5
45383;DHT22;42455;51.660;5.824;2023-05-10T14:25:45;19.0;95.0
45383;DHT22;42455;51.660;5.824;2023-05-10T14:30:52;19.2;96.0
45383;DHT22;42455;51.660;5.824;2023-05-10T14:35:58;19.5;95.0
45383;DHT22;42455;51.660;5.824;2023-05-10T14:41:04;19.7;94.0
45383;DHT22;42455;51.660;5.824;2023-05-10T14:46:10;19.8;93.5
45383;DHT22;42455;51.660;5.824;2023-05-10T14:51:17;19.9;92.5
45383;DHT22;42455;51.660;5.824;2023-05-10T14:56:23;19.9;92.5
45383;DHT22;42455;51.660;5.824;2023-05-10T15:01:29;20.0;92.0
45383;DHT22;42455;51.660;5.824;2023-05-10T15:06:35;19.9;91.5
45383;DHT22;42455;51.660;5.824;2023-05-10T15:11:41;19.9;91.5
45383;DHT22;42455;51.660;5.824;2023-05-10T15:16:48;19.8;91.0
45383;DHT22;42455;51.660;5.824;2023-05-10T15:21:54;19.7;90.5
45383;DHT22;42455;51.660;5.824;2023-05-10T15:27:00;19.6;91.0
45383;DHT22;42455;51.660;5.824;2023-05-10T15:32:06;19.5;90.5
45383;DHT22;42455;51.660;5.824;2023-05-10T15:37:12;19.4;90.5
45383;DHT22;42455;51.660;5.824;2023-05-10T15:42:19;19.3;90.5
45383;DHT22;42455;51.660;5.824;2023-05-10T15:47:25;19.1;90.5
45383;DHT22;42455;51.660;5.824;2023-05-10T15:52:31;19.0;90.5
45383;DHT22;42455;51.660;5.824;2023-05-10T15:57:37;18.9;91.0
45383;DHT22;42455;51.660;5.824;2023-05-10T16:02:43;18.8;91.0
45383;DHT22;42455;51.660;5.824;2023-05-10T16:07:50;18.6;91.0
45383;DHT22;42455;51.660;5.824;2023-05-10T16:12:57;18.5;91.5
45383;DHT22;42455;51.660;5.824;2023-05-10T16:18:02;18.4;92.0
45383;DHT22;42455;51.660;5.824;2023-05-10T16:23:08;18.4;92.0
45383;DHT22;42455;51.660;5.824;2023-05-10T16:28:14;18.4;92.5
45383;DHT22;42455;51.660;5.824;2023-05-10T16:33:21;18.4;93.0
45383;DHT22;42455;51.660;5.824;2023-05-10T16:38:27;18.5;93.0
45383;DHT22;42455;51.660;5.824;2023-05-10T16:43:33;18.5;93.0
45383;DHT22;42455;51.660;5.824;2023-05-10T16:48:39;18.6;93.0
45383;DHT22;42455;51.660;5.824;2023-05-10T16:53:46;18.5;93.0
45383;DHT22;42455;51.660;5.824;2023-05-10T16:58:52;18.6;93.0
45383;DHT22;42455;51.660;5.824;2023-05-10T17:03:58;18.5;93.0
45383;DHT22;42455;51.660;5.824;2023-05-10T17:09:04;18.5;93.0
45383;DHT22;42455;51.660;5.824;2023-05-10T17:14:10;18.6;93.0
45383;DHT22;42455;51.660;5.824;2023-05-10T17:19:17;18.6;93.0
45383;DHT22;42455;51.660;5.824;2023-05-10T17:24:23;18.6;93.0
45383;DHT22;42455;51.660;5.824;2023-05-10T17:29:29;18.6;92.5
45383;DHT22;42455;51.660;5.824;2023-05-10T17:34:35;18.6;92.5
45383;DHT22;42455;51.660;5.824;2023-05-10T17:39:41;18.5;92.5
45383;DHT22;42455;51.660;5.824;2023-05-10T17:44:48;18.5;92.5
45383;DHT22;42455;51.660;5.824;2023-05-10T17:49:54;18.4;92.5
45383;DHT22;42455;51.660;5.824;2023-05-10T17:55:00;18.3;92.0
45383;DHT22;42455;51.660;5.824;2023-05-10T18:00:06;18.2;92.5
45383;DHT22;42455;51.660;5.824;2023-05-10T18:05:12;18.1;92.5
45383;DHT22;42455;51.660;5.824;2023-05-10T18:10:19;18.0;92.5
45383;DHT22;42455;51.660;5.824;2023-05-10T18:15:25;18.0;92.5
45383;DHT22;42455;51.660;5.824;2023-05-10T18:20:31;17.9;92.5
45383;DHT22;42455;51.660;5.824;2023-05-10T18:25:37;17.8;93.0
45383;DHT22;42455;51.660;5.824;2023-05-10T18:30:43;17.8;93.0
45383;DHT22;42455;51.660;5.824;2023-05-10T18:35:50;17.7;93.0
45383;DHT22;42455;51.660;5.824;2023-05-10T18:40:56;17.7;93.5
45383;DHT22;42455;51.660;5.824;2023-05-10T18:46:02;17.6;93.5
45383;DHT22;42455;51.660;5.824;2023-05-10T18:51:08;17.5;94.0
45383;DHT22;42455;51.660;5.824;2023-05-10T18:56:15;17.5;94.0
45383;DHT22;42455;51.660;5.824;2023-05-10T19:01:21;17.4;94.0
45383;DHT22;42455;51.660;5.824;2023-05-10T19:06:27;17.4;94.0
45383;DHT22;42455;51.660;5.824;2023-05-10T19:11:33;17.3;94.0
45383;DHT22;42455;51.660;5.824;2023-05-10T19:16:39;17.2;94.5
45383;DHT22;42455;51.660;5.824;2023-05-10T19:21:46;17.1;94.5
45383;DHT22;42455;51.660;5.824;2023-05-10T19:26:52;17.0;94.5
45383;DHT22;42455;51.660;5.824;2023-05-10T19:31:58;16.9;95.0
45383;DHT22;42455;51.660;5.824;2023-05-10T19:37:04;16.9;95.0
45383;DHT22;42455;51.660;5.824;2023-05-10T19:42:10;16.8;95.0
45383;DHT22;42455;51.660;5.824;2023-05-10T19:47:17;16.7;95.0
45383;DHT22;42455;51.660;5.824;2023-05-10T19:52:22;16.6;95.0
45383;DHT22;42455;51.660;5.824;2023-05-10T19:57:27;16.5;94.5
45383;DHT22;42455;51.660;5.824;2023-05-10T20:02:33;16.4;95.0
45383;DHT22;42455;51.660;5.824;2023-05-10T20:07:39;16.3;95.0
45383;DHT22;42455;51.660;5.824;2023-05-10T20:12:47;16.2;94.5
45383;DHT22;42455;51.660;5.824;2023-05-10T20:17:52;16.1;95.0
45383;DHT22;42455;51.660;5.824;2023-05-10T20:22:58;16.1;95.0
45383;DHT22;42455;51.660;5.824;2023-05-10T20:28:04;16.0;95.0
45383;DHT22;42455;51.660;5.824;2023-05-10T20:33:10;16.0;95.5
45383;DHT22;42455;51.660;5.824;2023-05-10T20:38:17;15.9;95.5
45383;DHT22;42455;51.660;5.824;2023-05-10T20:43:23;15.9;95.5
45383;DHT22;42455;51.660;5.824;2023-05-10T20:48:29;15.9;95.5
45383;DHT22;42455;51.660;5.824;2023-05-10T20:53:35;15.8;95.5
45383;DHT22;42455;51.660;5.824;2023-05-10T20:58:42;15.7;95.5
45383;DHT22;42455;51.660;5.824;2023-05-10T21:03:48;15.7;96.0
45383;DHT22;42455;51.660;5.824;2023-05-10T21:08:54;15.7;96.0
45383;DHT22;42455;51.660;5.824;2023-05-10T21:14:00;15.7;96.5
45383;DHT22;42455;51.660;5.824;2023-05-10T21:19:07;15.7;96.5
45383;DHT22;42455;51.660;5.824;2023-05-10T21:24:13;15.6;96.5
45383;DHT22;42455;51.660;5.824;2023-05-10T21:29:19;15.6;96.5
45383;DHT22;42455;51.660;5.824;2023-05-10T21:34:25;15.6;97.0
45383;DHT22;42455;51.660;5.824;2023-05-10T21:39:30;15.6;97.0
45383;DHT22;42455;51.660;5.824;2023-05-10T21:44:37;15.6;97.0
45383;DHT22;42455;51.660;5.824;2023-05-10T21:49:43;15.6;97.5
45383;DHT22;42455;51.660;5.824;2023-05-10T21:54:49;15.6;97.5
45383;DHT22;42455;51.660;5.824;2023-05-10T21:59:55;15.6;97.5
45383;DHT22;42455;51.660;5.824;2023-05-10T22:05:02;15.6;97.5
45383;DHT22;42455;51.660;5.824;2023-05-10T22:10:08;15.6;97.5
45383;DHT22;42455;51.660;5.824;2023-05-10T22:15:14;15.6;97.5
45383;DHT22;42455;51.660;5.824;2023-05-10T22:20:20;15.6;98.0
45383;DHT22;42455;51.660;5.824;2023-05-10T22:25:26;15.6;98.0
45383;DHT22;42455;51.660;5.824;2023-05-10T22:30:32;15.6;98.0
45383;DHT22;42455;51.660;5.824;2023-05-10T22:35:39;15.6;98.0
45383;DHT22;42455;51.660;5.824;2023-05-10T22:40:45;15.6;98.0
45383;DHT22;42455;51.660;5.824;2023-05-10T22:45:51;15.6;98.0
45383;DHT22;42455;51.660;5.824;2023-05-10T22:50:57;15.6;98.5
45383;DHT22;42455;51.660;5.824;2023-05-10T22:56:04;15.6;98.5
45383;DHT22;42455;51.660;5.824;2023-05-10T23:01:10;15.6;98.5
45383;DHT22;42455;51.660;5.824;2023-05-10T23:06:16;15.6;98.5
45383;DHT22;42455;51.660;5.824;2023-05-10T23:11:22;15.6;98.5
45383;DHT22;42455;51.660;5.824;2023-05-10T23:16:28;15.6;98.5
45383;DHT22;42455;51.660;5.824;2023-05-10T23:21:34;15.6;98.5
45383;DHT22;42455;51.660;5.824;2023-05-10T23:26:40;15.6;98.5
45383;DHT22;42455;51.660;5.824;2023-05-10T23:31:47;15.6;98.5
45383;DHT22;42455;51.660;5.824;2023-05-10T23:36:52;15.6;98.5
45383;DHT22;42455;51.660;5.824;2023-05-10T23:41:59;15.6;98.5
45383;DHT22;42455;51.660;5.824;2023-05-10T23:47:05;15.6;98.5
45383;DHT22;42455;51.660;5.824;2023-05-10T23:52:11;15.6;98.5
45383;DHT22;42455;51.660;5.824;2023-05-10T23:57:17;15.6;98.5
